sensor_id;sensor_type;location;lat;lon;timestamp;pressure;altitude;pressure_sealevel;temperature;humidity
54554;BME280;40450;55.848;-3.572;2022-09-13T00:00:55;99020.77;;;15.41;71.98
54554;BME280;40450;55.848;-3.572;2022-09-13T00:03:25;99029.85;;;14.80;73.42
54554;BME280;40450;55.848;-3.572;2022-09-13T00:05:55;99037.75;;;14.76;74.00
54554;BME280;40450;55.848;-3.572;2022-09-13T00:08:25;99043.24;;;15.25;72.62
54554;BME280;40450;55.848;-3.572;2022-09-13T00:10:56;99050.52;;;14.98;73.06
54554;BME280;40450;55.848;-3.572;2022-09-13T00:13:26;99050.57;;;14.79;74.16
54554;BME280;40450;55.848;-3.572;2022-09-13T00:15:57;99051.40;;;15.67;72.25
54554;BME280;40450;55.848;-3.572;2022-09-13T00:18:27;99045.73;;;15.82;71.47
54554;BME280;40450;55.848;-3.572;2022-09-13T00:21:04;99036.67;;;15.74;71.18
54554;BME280;40450;55.848;-3.572;2022-09-13T00:23:27;99034.99;;;15.86;71.09
54554;BME280;40450;55.848;-3.572;2022-09-13T00:26:04;99034.01;;;14.73;73.36
54554;BME280;40450;55.848;-3.572;2022-09-13T00:28:28;99035.56;;;14.80;74.06
54554;BME280;40450;55.848;-3.572;2022-09-13T00:31:00;99041.57;;;15.08;73.37
54554;BME280;40450;55.848;-3.572;2022-09-13T00:33:29;99056.74;;;14.97;73.50
54554;BME280;40450;55.848;-3.572;2022-09-13T00:36:04;99060.65;;;15.33;72.01
54554;BME280;40450;55.848;-3.572;2022-09-13T00:38:30;99060.86;;;14.98;73.22
54554;BME280;40450;55.848;-3.572;2022-09-13T00:41:00;99056.72;;;13.97;76.32
54554;BME280;40450;55.848;-3.572;2022-09-13T00:46:01;99057.64;;;13.32;79.46
54554;BME280;40450;55.848;-3.572;2022-09-13T00:48:32;99058.30;;;13.55;78.05
54554;BME280;40450;55.848;-3.572;2022-09-13T00:51:03;99054.73;;;13.42;79.23
54554;BME280;40450;55.848;-3.572;2022-09-13T00:53:34;99052.61;;;13.12;79.76
54554;BME280;40450;55.848;-3.572;2022-09-13T00:56:06;99059.68;;;13.21;80.07
54554;BME280;40450;55.848;-3.572;2022-09-13T00:58:37;99064.60;;;13.51;79.00
54554;BME280;40450;55.848;-3.572;2022-09-13T01:01:04;99057.94;;;13.40;79.32
54554;BME280;40450;55.848;-3.572;2022-09-13T01:03:34;99057.55;;;13.49;78.89
54554;BME280;40450;55.848;-3.572;2022-09-13T01:06:10;99058.64;;;13.13;80.18
54554;BME280;40450;55.848;-3.572;2022-09-13T01:08:35;99056.66;;;13.13;80.26
54554;BME280;40450;55.848;-3.572;2022-09-13T01:11:06;99048.25;;;14.00;78.70
54554;BME280;40450;55.848;-3.572;2022-09-13T01:13:35;99047.94;;;14.52;77.84
54554;BME280;40450;55.848;-3.572;2022-09-13T01:16:05;99045.31;;;14.86;76.25
54554;BME280;40450;55.848;-3.572;2022-09-13T01:18:35;99044.23;;;15.22;75.08
54554;BME280;40450;55.848;-3.572;2022-09-13T01:21:22;99041.92;;;15.74;75.24
54554;BME280;40450;55.848;-3.572;2022-09-13T01:23:43;99048.58;;;15.12;73.62
54554;BME280;40450;55.848;-3.572;2022-09-13T01:26:23;99052.23;;;14.94;73.92
54554;BME280;40450;55.848;-3.572;2022-09-13T01:28:51;99049.18;;;14.89;74.07
54554;BME280;40450;55.848;-3.572;2022-09-13T01:31:10;99044.15;;;14.23;76.05
54554;BME280;40450;55.848;-3.572;2022-09-13T01:33:46;99041.56;;;14.47;75.19
54554;BME280;40450;55.848;-3.572;2022-09-13T01:36:21;99038.35;;;14.19;75.99
54554;BME280;40450;55.848;-3.572;2022-09-13T01:38:45;99047.46;;;14.64;75.78
54554;BME280;40450;55.848;-3.572;2022-09-13T01:41:19;99047.36;;;14.47;75.78
54554;BME280;40450;55.848;-3.572;2022-09-13T01:43:46;99048.61;;;14.63;74.84
54554;BME280;40450;55.848;-3.572;2022-09-13T01:46:15;99042.48;;;14.13;76.49
54554;BME280;40450;55.848;-3.572;2022-09-13T01:48:51;99043.64;;;14.10;76.41
54554;BME280;40450;55.848;-3.572;2022-09-13T01:51:16;99049.15;;;14.16;76.25
54554;BME280;40450;55.848;-3.572;2022-09-13T01:53:49;99047.66;;;14.24;76.41
54554;BME280;40450;55.848;-3.572;2022-09-13T01:56:17;99049.03;;;14.45;74.79
54554;BME280;40450;55.848;-3.572;2022-09-13T01:58:47;99052.09;;;14.92;75.17
54554;BME280;40450;55.848;-3.572;2022-09-13T02:01:15;99054.20;;;15.08;73.91
54554;BME280;40450;55.848;-3.572;2022-09-13T02:03:47;99052.62;;;14.67;74.57
54554;BME280;40450;55.848;-3.572;2022-09-13T02:06:16;99056.26;;;15.08;73.65
54554;BME280;40450;55.848;-3.572;2022-09-13T02:08:46;99046.15;;;15.19;73.67
54554;BME280;40450;55.848;-3.572;2022-09-13T02:11:15;99038.96;;;14.89;73.77
54554;BME280;40450;55.848;-3.572;2022-09-13T02:13:48;99033.76;;;13.82;76.51
54554;BME280;40450;55.848;-3.572;2022-09-13T02:16:18;99037.18;;;14.48;74.85
54554;BME280;40450;55.848;-3.572;2022-09-13T02:18:49;99044.64;;;14.91;73.95
54554;BME280;40450;55.848;-3.572;2022-09-13T02:21:20;99048.44;;;14.07;75.19
54554;BME280;40450;55.848;-3.572;2022-09-13T02:23:49;99050.58;;;15.18;73.22
54554;BME280;40450;55.848;-3.572;2022-09-13T02:26:17;99056.24;;;14.65;74.14
54554;BME280;40450;55.848;-3.572;2022-09-13T02:28:48;99057.14;;;14.34;74.54
54554;BME280;40450;55.848;-3.572;2022-09-13T02:31:20;99058.25;;;14.25;75.76
54554;BME280;40450;55.848;-3.572;2022-09-13T02:33:50;99053.23;;;14.02;76.18
54554;BME280;40450;55.848;-3.572;2022-09-13T02:36:22;99051.47;;;14.17;76.20
54554;BME280;40450;55.848;-3.572;2022-09-13T02:38:50;99051.40;;;14.22;76.24
54554;BME280;40450;55.848;-3.572;2022-09-13T02:41:22;99052.45;;;14.42;76.02
54554;BME280;40450;55.848;-3.572;2022-09-13T02:43:50;99049.31;;;14.32;75.75
54554;BME280;40450;55.848;-3.572;2022-09-13T02:46:25;99058.43;;;14.36;75.73
54554;BME280;40450;55.848;-3.572;2022-09-13T02:48:55;99065.75;;;14.80;74.85
54554;BME280;40450;55.848;-3.572;2022-09-13T02:51:27;99063.26;;;14.93;74.47
54554;BME280;40450;55.848;-3.572;2022-09-13T02:53:54;99065.91;;;15.10;74.41
54554;BME280;40450;55.848;-3.572;2022-09-13T02:56:26;99060.92;;;14.93;74.63
54554;BME280;40450;55.848;-3.572;2022-09-13T02:58:56;99061.80;;;14.96;73.73
54554;BME280;40450;55.848;-3.572;2022-09-13T03:01:21;99063.76;;;14.78;74.12
54554;BME280;40450;55.848;-3.572;2022-09-13T03:03:51;99066.19;;;15.30;72.72
54554;BME280;40450;55.848;-3.572;2022-09-13T03:06:22;99064.58;;;15.26;73.28
54554;BME280;40450;55.848;-3.572;2022-09-13T03:08:52;99060.16;;;14.96;73.57
54554;BME280;40450;55.848;-3.572;2022-09-13T03:11:28;99063.20;;;15.32;72.76
54554;BME280;40450;55.848;-3.572;2022-09-13T03:14:02;99062.52;;;15.16;72.91
54554;BME280;40450;55.848;-3.572;2022-09-13T03:16:36;99057.50;;;14.94;72.67
54554;BME280;40450;55.848;-3.572;2022-09-13T03:19:04;99059.16;;;14.95;73.68
54554;BME280;40450;55.848;-3.572;2022-09-13T03:21:36;99058.99;;;15.17;73.22
54554;BME280;40450;55.848;-3.572;2022-09-13T03:24:01;99059.17;;;14.39;75.15
54554;BME280;40450;55.848;-3.572;2022-09-13T03:26:32;99055.98;;;13.98;76.42
54554;BME280;40450;55.848;-3.572;2022-09-13T03:29:07;99056.51;;;14.66;75.02
54554;BME280;40450;55.848;-3.572;2022-09-13T03:31:31;99054.33;;;13.83;77.04
54554;BME280;40450;55.848;-3.572;2022-09-13T03:33:57;99057.80;;;14.43;75.68
54554;BME280;40450;55.848;-3.572;2022-09-13T03:36:31;99058.40;;;14.76;75.05
54554;BME280;40450;55.848;-3.572;2022-09-13T03:39:00;99056.46;;;14.38;75.71
54554;BME280;40450;55.848;-3.572;2022-09-13T03:41:30;99055.35;;;14.84;74.35
54554;BME280;40450;55.848;-3.572;2022-09-13T03:43:58;99056.52;;;14.36;75.47
54554;BME280;40450;55.848;-3.572;2022-09-13T03:46:30;99061.63;;;14.67;74.86
54554;BME280;40450;55.848;-3.572;2022-09-13T03:49:00;99061.24;;;14.14;76.02
54554;BME280;40450;55.848;-3.572;2022-09-13T03:51:28;99060.25;;;14.48;75.66
54554;BME280;40450;55.848;-3.572;2022-09-13T03:54:01;99053.12;;;14.89;74.26
54554;BME280;40450;55.848;-3.572;2022-09-13T03:56:28;99052.40;;;14.64;74.67
54554;BME280;40450;55.848;-3.572;2022-09-13T03:58:59;99061.53;;;14.89;74.14
54554;BME280;40450;55.848;-3.572;2022-09-13T04:01:30;99060.57;;;14.58;75.00
54554;BME280;40450;55.848;-3.572;2022-09-13T04:04:00;99071.28;;;14.94;74.15
54554;BME280;40450;55.848;-3.572;2022-09-13T04:06:30;99072.16;;;14.61;74.51
54554;BME280;40450;55.848;-3.572;2022-09-13T04:09:01;99068.49;;;15.22;73.11
54554;BME280;40450;55.848;-3.572;2022-09-13T04:11:31;99066.01;;;15.19;73.01
54554;BME280;40450;55.848;-3.572;2022-09-13T04:14:07;99067.00;;;14.86;72.88
54554;BME280;40450;55.848;-3.572;2022-09-13T04:16:32;99071.71;;;14.81;73.37
54554;BME280;40450;55.848;-3.572;2022-09-13T04:19:02;99067.53;;;14.72;73.73
54554;BME280;40450;55.848;-3.572;2022-09-13T04:21:33;99066.52;;;14.62;73.97
54554;BME280;40450;55.848;-3.572;2022-09-13T04:24:03;99069.58;;;14.69;73.71
54554;BME280;40450;55.848;-3.572;2022-09-13T04:26:33;99067.99;;;14.21;74.56
54554;BME280;40450;55.848;-3.572;2022-09-13T04:29:04;99074.24;;;14.02;75.40
54554;BME280;40450;55.848;-3.572;2022-09-13T04:31:34;99070.82;;;14.52;74.60
54554;BME280;40450;55.848;-3.572;2022-09-13T04:34:04;99071.59;;;14.55;74.56
54554;BME280;40450;55.848;-3.572;2022-09-13T04:36:35;99067.85;;;14.78;73.69
54554;BME280;40450;55.848;-3.572;2022-09-13T04:39:05;99071.22;;;14.68;73.91
54554;BME280;40450;55.848;-3.572;2022-09-13T04:41:36;99064.76;;;15.19;72.73
54554;BME280;40450;55.848;-3.572;2022-09-13T04:44:06;99062.82;;;14.99;72.48
54554;BME280;40450;55.848;-3.572;2022-09-13T04:46:36;99065.63;;;14.13;74.95
54554;BME280;40450;55.848;-3.572;2022-09-13T04:49:08;99072.40;;;14.71;73.51
54554;BME280;40450;55.848;-3.572;2022-09-13T04:51:37;99071.49;;;13.67;76.08
54554;BME280;40450;55.848;-3.572;2022-09-13T04:54:09;99071.04;;;12.45;78.26
54554;BME280;40450;55.848;-3.572;2022-09-13T04:56:37;99074.10;;;11.23;84.38
54554;BME280;40450;55.848;-3.572;2022-09-13T04:59:09;99068.32;;;10.36;86.86
54554;BME280;40450;55.848;-3.572;2022-09-13T05:01:39;99069.68;;;11.42;83.87
54554;BME280;40450;55.848;-3.572;2022-09-13T05:04:09;99065.36;;;12.00;82.79
54554;BME280;40450;55.848;-3.572;2022-09-13T05:06:39;99065.28;;;12.13;82.08
54554;BME280;40450;55.848;-3.572;2022-09-13T05:09:12;99067.34;;;11.74;82.88
54554;BME280;40450;55.848;-3.572;2022-09-13T05:11:40;99072.20;;;11.66;83.16
54554;BME280;40450;55.848;-3.572;2022-09-13T05:14:11;99081.67;;;11.97;82.13
54554;BME280;40450;55.848;-3.572;2022-09-13T05:16:41;99079.24;;;12.21;81.60
54554;BME280;40450;55.848;-3.572;2022-09-13T05:19:11;99085.66;;;11.63;83.31
54554;BME280;40450;55.848;-3.572;2022-09-13T05:21:41;99091.71;;;11.14;84.33
54554;BME280;40450;55.848;-3.572;2022-09-13T05:24:12;99087.51;;;10.97;85.03
54554;BME280;40450;55.848;-3.572;2022-09-13T05:26:42;99086.84;;;11.03;84.99
54554;BME280;40450;55.848;-3.572;2022-09-13T05:29:12;99090.18;;;10.79;85.75
54554;BME280;40450;55.848;-3.572;2022-09-13T05:31:43;99095.78;;;10.79;86.15
54554;BME280;40450;55.848;-3.572;2022-09-13T05:34:15;99100.71;;;10.43;87.08
54554;BME280;40450;55.848;-3.572;2022-09-13T05:36:44;99099.09;;;10.05;87.93
54554;BME280;40450;55.848;-3.572;2022-09-13T05:39:15;99090.49;;;10.53;86.84
54554;BME280;40450;55.848;-3.572;2022-09-13T05:41:44;99080.51;;;11.13;85.32
54554;BME280;40450;55.848;-3.572;2022-09-13T05:44:15;99076.46;;;11.72;84.21
54554;BME280;40450;55.848;-3.572;2022-09-13T05:46:46;99084.85;;;12.71;82.88
54554;BME280;40450;55.848;-3.572;2022-09-13T05:49:15;99089.19;;;12.35;81.20
54554;BME280;40450;55.848;-3.572;2022-09-13T05:51:46;99094.34;;;12.05;81.63
54554;BME280;40450;55.848;-3.572;2022-09-13T05:54:21;99093.59;;;11.96;82.12
54554;BME280;40450;55.848;-3.572;2022-09-13T05:56:47;99098.75;;;11.67;82.32
54554;BME280;40450;55.848;-3.572;2022-09-13T05:59:17;99106.78;;;11.03;84.29
54554;BME280;40450;55.848;-3.572;2022-09-13T06:01:47;99098.63;;;11.74;82.88
54554;BME280;40450;55.848;-3.572;2022-09-13T06:04:18;99098.27;;;11.85;81.93
54554;BME280;40450;55.848;-3.572;2022-09-13T06:06:48;99100.29;;;11.62;82.58
54554;BME280;40450;55.848;-3.572;2022-09-13T06:09:19;99106.72;;;11.47;82.91
54554;BME280;40450;55.848;-3.572;2022-09-13T06:11:49;99108.67;;;11.36;82.12
54554;BME280;40450;55.848;-3.572;2022-09-13T06:14:19;99107.36;;;11.44;81.85
54554;BME280;40450;55.848;-3.572;2022-09-13T06:16:49;99100.45;;;11.73;81.25
54554;BME280;40450;55.848;-3.572;2022-09-13T06:19:20;99106.17;;;11.23;83.21
54554;BME280;40450;55.848;-3.572;2022-09-13T06:21:50;99101.14;;;11.41;83.34
54554;BME280;40450;55.848;-3.572;2022-09-13T06:24:21;99106.51;;;11.28;84.28
54554;BME280;40450;55.848;-3.572;2022-09-13T06:26:51;99107.09;;;11.48;83.62
54554;BME280;40450;55.848;-3.572;2022-09-13T06:29:21;99109.76;;;11.26;84.55
54554;BME280;40450;55.848;-3.572;2022-09-13T06:31:52;99108.75;;;11.14;84.46
54554;BME280;40450;55.848;-3.572;2022-09-13T06:34:22;99103.68;;;10.53;87.04
54554;BME280;40450;55.848;-3.572;2022-09-13T06:36:53;99107.80;;;10.37;87.88
54554;BME280;40450;55.848;-3.572;2022-09-13T06:39:23;99112.63;;;10.51;87.50
54554;BME280;40450;55.848;-3.572;2022-09-13T06:41:53;99114.43;;;10.69;87.28
54554;BME280;40450;55.848;-3.572;2022-09-13T06:44:24;99113.46;;;10.30;88.10
54554;BME280;40450;55.848;-3.572;2022-09-13T06:46:54;99108.55;;;10.33;88.50
54554;BME280;40450;55.848;-3.572;2022-09-13T06:49:24;99107.40;;;10.53;87.89
54554;BME280;40450;55.848;-3.572;2022-09-13T06:51:55;99105.75;;;11.35;86.38
54554;BME280;40450;55.848;-3.572;2022-09-13T06:54:30;99100.66;;;11.45;85.61
54554;BME280;40450;55.848;-3.572;2022-09-13T06:56:56;99099.65;;;11.65;84.92
54554;BME280;40450;55.848;-3.572;2022-09-13T06:59:26;99109.68;;;11.57;84.93
54554;BME280;40450;55.848;-3.572;2022-09-13T07:01:56;99115.98;;;11.64;84.80
54554;BME280;40450;55.848;-3.572;2022-09-13T07:04:27;99117.04;;;11.86;84.17
54554;BME280;40450;55.848;-3.572;2022-09-13T07:07:01;99114.81;;;12.34;82.91
54554;BME280;40450;55.848;-3.572;2022-09-13T07:09:27;99110.39;;;12.88;81.36
54554;BME280;40450;55.848;-3.572;2022-09-13T07:12:04;99110.52;;;13.31;80.17
54554;BME280;40450;55.848;-3.572;2022-09-13T07:14:28;99105.99;;;13.73;79.85
54554;BME280;40450;55.848;-3.572;2022-09-13T07:17:04;99106.68;;;13.11;80.24
54554;BME280;40450;55.848;-3.572;2022-09-13T07:19:29;99107.89;;;13.10;81.20
54554;BME280;40450;55.848;-3.572;2022-09-13T07:21:59;99110.81;;;13.50;80.10
54554;BME280;40450;55.848;-3.572;2022-09-13T07:24:30;99112.38;;;13.46;79.35
54554;BME280;40450;55.848;-3.572;2022-09-13T07:27:00;99113.33;;;14.12;78.61
54554;BME280;40450;55.848;-3.572;2022-09-13T07:29:30;99116.42;;;13.49;78.92
54554;BME280;40450;55.848;-3.572;2022-09-13T07:32:01;99115.68;;;14.35;78.42
54554;BME280;40450;55.848;-3.572;2022-09-13T07:34:31;99112.91;;;14.25;77.01
54554;BME280;40450;55.848;-3.572;2022-09-13T07:37:01;99109.88;;;13.88;77.95
54554;BME280;40450;55.848;-3.572;2022-09-13T07:39:31;99111.06;;;14.11;77.54
54554;BME280;40450;55.848;-3.572;2022-09-13T07:42:02;99106.81;;;13.59;78.22
54554;BME280;40450;55.848;-3.572;2022-09-13T07:44:37;99114.42;;;13.74;78.01
54554;BME280;40450;55.848;-3.572;2022-09-13T07:47:03;99111.84;;;14.33;77.36
54554;BME280;40450;55.848;-3.572;2022-09-13T07:49:33;99107.95;;;14.51;75.54
54554;BME280;40450;55.848;-3.572;2022-09-13T07:52:03;99114.69;;;14.11;76.09
54554;BME280;40450;55.848;-3.572;2022-09-13T07:54:33;99115.81;;;14.89;76.05
54554;BME280;40450;55.848;-3.572;2022-09-13T07:57:04;99113.64;;;15.14;74.14
54554;BME280;40450;55.848;-3.572;2022-09-13T07:59:35;99109.47;;;14.88;75.33
54554;BME280;40450;55.848;-3.572;2022-09-13T08:02:05;99115.11;;;15.20;74.45
54554;BME280;40450;55.848;-3.572;2022-09-13T08:04:35;99116.45;;;14.76;75.46
54554;BME280;40450;55.848;-3.572;2022-09-13T08:07:10;99128.10;;;15.31;74.48
54554;BME280;40450;55.848;-3.572;2022-09-13T08:09:36;99128.46;;;15.49;73.19
54554;BME280;40450;55.848;-3.572;2022-09-13T08:12:06;99127.71;;;15.50;73.04
54554;BME280;40450;55.848;-3.572;2022-09-13T08:14:36;99122.97;;;15.61;73.72
54554;BME280;40450;55.848;-3.572;2022-09-13T08:17:07;99124.84;;;15.21;74.32
54554;BME280;40450;55.848;-3.572;2022-09-13T08:19:37;99124.09;;;15.88;72.73
54554;BME280;40450;55.848;-3.572;2022-09-13T08:22:07;99119.30;;;15.18;73.55
54554;BME280;40450;55.848;-3.572;2022-09-13T08:24:38;99116.00;;;15.08;74.40
54554;BME280;40450;55.848;-3.572;2022-09-13T08:27:08;99109.80;;;14.24;76.13
54554;BME280;40450;55.848;-3.572;2022-09-13T08:29:44;99105.25;;;14.44;75.79
54554;BME280;40450;55.848;-3.572;2022-09-13T08:32:09;99098.62;;;14.49;76.16
54554;BME280;40450;55.848;-3.572;2022-09-13T08:34:39;99101.46;;;15.16;74.64
54554;BME280;40450;55.848;-3.572;2022-09-13T08:37:10;99101.65;;;14.14;78.21
54554;BME280;40450;55.848;-3.572;2022-09-13T08:39:40;99104.74;;;14.13;78.03
54554;BME280;40450;55.848;-3.572;2022-09-13T08:42:20;99107.71;;;14.69;77.14
54554;BME280;40450;55.848;-3.572;2022-09-13T08:44:44;99116.70;;;15.49;74.03
54554;BME280;40450;55.848;-3.572;2022-09-13T08:47:21;99115.31;;;15.73;74.04
54554;BME280;40450;55.848;-3.572;2022-09-13T08:49:43;99119.67;;;15.84;73.39
54554;BME280;40450;55.848;-3.572;2022-09-13T08:52:21;99113.43;;;16.22;71.65
54554;BME280;40450;55.848;-3.572;2022-09-13T08:54:42;99113.65;;;16.61;72.41
54554;BME280;40450;55.848;-3.572;2022-09-13T08:57:17;99110.42;;;16.45;71.26
54554;BME280;40450;55.848;-3.572;2022-09-13T08:59:49;99115.20;;;15.50;72.78
54554;BME280;40450;55.848;-3.572;2022-09-13T09:02:26;99107.94;;;15.88;72.13
54554;BME280;40450;55.848;-3.572;2022-09-13T09:04:47;99102.70;;;15.14;74.06
54554;BME280;40450;55.848;-3.572;2022-09-13T09:07:19;99096.49;;;15.46;74.18
54554;BME280;40450;55.848;-3.572;2022-09-13T09:09:49;99083.36;;;16.00;72.97
54554;BME280;40450;55.848;-3.572;2022-09-13T09:12:21;99079.15;;;16.03;72.02
54554;BME280;40450;55.848;-3.572;2022-09-13T09:14:52;99089.94;;;15.33;73.79
54554;BME280;40450;55.848;-3.572;2022-09-13T09:17:21;99091.30;;;15.24;74.44
54554;BME280;40450;55.848;-3.572;2022-09-13T09:19:48;99087.62;;;15.79;73.38
54554;BME280;40450;55.848;-3.572;2022-09-13T09:22:18;99091.79;;;16.18;72.61
54554;BME280;40450;55.848;-3.572;2022-09-13T09:24:49;99097.95;;;15.90;73.05
54554;BME280;40450;55.848;-3.572;2022-09-13T09:27:22;99093.48;;;15.96;72.78
54554;BME280;40450;55.848;-3.572;2022-09-13T09:29:49;99096.02;;;15.51;75.00
54554;BME280;40450;55.848;-3.572;2022-09-13T09:32:31;99097.26;;;15.41;74.07
54554;BME280;40450;55.848;-3.572;2022-09-13T09:34:56;99091.67;;;16.49;72.28
54554;BME280;40450;55.848;-3.572;2022-09-13T09:37:20;99092.15;;;15.71;71.60
54554;BME280;40450;55.848;-3.572;2022-09-13T09:39:49;99089.97;;;16.23;70.55
54554;BME280;40450;55.848;-3.572;2022-09-13T09:42:21;99096.11;;;15.87;72.63
54554;BME280;40450;55.848;-3.572;2022-09-13T09:44:51;99098.51;;;14.40;76.17
54554;BME280;40450;55.848;-3.572;2022-09-13T09:47:22;99106.81;;;11.82;85.28
54554;BME280;40450;55.848;-3.572;2022-09-13T09:49:53;99105.69;;;12.49;83.70
54554;BME280;40450;55.848;-3.572;2022-09-13T09:52:24;99104.68;;;11.89;85.67
54554;BME280;40450;55.848;-3.572;2022-09-13T09:54:50;99116.03;;;10.36;91.49
54554;BME280;40450;55.848;-3.572;2022-09-13T09:57:20;99117.74;;;10.52;91.35
54554;BME280;40450;55.848;-3.572;2022-09-13T09:59:51;99125.72;;;10.62;90.28
54554;BME280;40450;55.848;-3.572;2022-09-13T10:02:21;99111.60;;;12.19;85.34
54554;BME280;40450;55.848;-3.572;2022-09-13T10:04:54;99114.04;;;11.26;87.50
54554;BME280;40450;55.848;-3.572;2022-09-13T10:07:29;99107.91;;;11.32;87.58
54554;BME280;40450;55.848;-3.572;2022-09-13T10:09:58;99105.62;;;10.84;91.03
54554;BME280;40450;55.848;-3.572;2022-09-13T10:12:26;99097.89;;;11.69;86.72
54554;BME280;40450;55.848;-3.572;2022-09-13T10:15:02;99097.32;;;12.06;86.57
54554;BME280;40450;55.848;-3.572;2022-09-13T10:17:25;99095.02;;;13.08;83.17
54554;BME280;40450;55.848;-3.572;2022-09-13T10:19:55;99087.91;;;12.50;83.80
54554;BME280;40450;55.848;-3.572;2022-09-13T10:22:24;99085.45;;;13.06;82.92
54554;BME280;40450;55.848;-3.572;2022-09-13T10:24:54;99091.34;;;10.83;89.08
54554;BME280;40450;55.848;-3.572;2022-09-13T10:27:29;99091.74;;;12.00;87.30
54554;BME280;40450;55.848;-3.572;2022-09-13T10:29:57;99100.14;;;10.91;89.50
54554;BME280;40450;55.848;-3.572;2022-09-13T10:32:26;99102.43;;;11.04;89.47
54554;BME280;40450;55.848;-3.572;2022-09-13T10:35:07;99097.64;;;12.41;87.12
54554;BME280;40450;55.848;-3.572;2022-09-13T10:37:29;99098.64;;;13.64;82.29
54554;BME280;40450;55.848;-3.572;2022-09-13T10:40:01;99100.93;;;12.73;83.52
54554;BME280;40450;55.848;-3.572;2022-09-13T10:42:27;99102.50;;;13.72;81.12
54554;BME280;40450;55.848;-3.572;2022-09-13T10:44:59;99103.22;;;14.97;76.16
54554;BME280;40450;55.848;-3.572;2022-09-13T10:47:32;99097.94;;;16.19;75.23
54554;BME280;40450;55.848;-3.572;2022-09-13T10:50:15;99102.59;;;16.44;72.67
54554;BME280;40450;55.848;-3.572;2022-09-13T10:52:31;99101.60;;;16.98;70.06
54554;BME280;40450;55.848;-3.572;2022-09-13T10:57:33;99094.19;;;17.23;68.34
54554;BME280;40450;55.848;-3.572;2022-09-13T10:59:59;99095.73;;;17.40;66.02
54554;BME280;40450;55.848;-3.572;2022-09-13T11:02:42;99105.93;;;16.80;69.32
54554;BME280;40450;55.848;-3.572;2022-09-13T11:05:08;99098.77;;;18.11;65.93
54554;BME280;40450;55.848;-3.572;2022-09-13T11:07:41;99095.87;;;16.79;68.35
54554;BME280;40450;55.848;-3.572;2022-09-13T11:10:03;99092.66;;;17.11;67.46
54554;BME280;40450;55.848;-3.572;2022-09-13T11:12:38;99089.72;;;16.32;69.69
54554;BME280;40450;55.848;-3.572;2022-09-13T11:15:11;99098.77;;;14.19;77.55
54554;BME280;40450;55.848;-3.572;2022-09-13T11:17:54;99098.00;;;13.49;80.03
54554;BME280;40450;55.848;-3.572;2022-09-13T11:20:12;99099.23;;;15.50;73.75
54554;BME280;40450;55.848;-3.572;2022-09-13T11:25:12;99099.61;;;15.25;74.21
54554;BME280;40450;55.848;-3.572;2022-09-13T11:27:41;99088.70;;;15.55;72.46
54554;BME280;40450;55.848;-3.572;2022-09-13T11:30:11;99090.07;;;14.95;74.94
54554;BME280;40450;55.848;-3.572;2022-09-13T11:32:46;99092.86;;;15.25;74.07
54554;BME280;40450;55.848;-3.572;2022-09-13T11:35:18;99082.76;;;15.73;73.91
54554;BME280;40450;55.848;-3.572;2022-09-13T11:37:44;99083.85;;;16.04;70.56
54554;BME280;40450;55.848;-3.572;2022-09-13T11:40:22;99080.89;;;16.45;70.06
54554;BME280;40450;55.848;-3.572;2022-09-13T11:42:47;99080.97;;;16.78;68.32
54554;BME280;40450;55.848;-3.572;2022-09-13T11:45:14;99077.51;;;17.30;67.80
54554;BME280;40450;55.848;-3.572;2022-09-13T11:47:46;99075.27;;;17.85;68.00
54554;BME280;40450;55.848;-3.572;2022-09-13T11:50:21;99071.10;;;17.64;66.85
54554;BME280;40450;55.848;-3.572;2022-09-13T11:52:44;99059.96;;;16.55;69.33
54554;BME280;40450;55.848;-3.572;2022-09-13T11:55:14;99058.20;;;17.68;66.54
54554;BME280;40450;55.848;-3.572;2022-09-13T11:57:40;99059.63;;;16.34;71.39
54554;BME280;40450;55.848;-3.572;2022-09-13T12:00:18;99062.64;;;16.73;68.47
54554;BME280;40450;55.848;-3.572;2022-09-13T12:02:43;99059.10;;;16.62;69.59
54554;BME280;40450;55.848;-3.572;2022-09-13T12:05:14;99053.56;;;16.63;69.10
54554;BME280;40450;55.848;-3.572;2022-09-13T12:07:42;99047.13;;;15.97;71.44
54554;BME280;40450;55.848;-3.572;2022-09-13T12:10:15;99048.44;;;15.38;75.26
54554;BME280;40450;55.848;-3.572;2022-09-13T12:12:40;99044.05;;;16.69;70.16
54554;BME280;40450;55.848;-3.572;2022-09-13T12:15:15;99046.28;;;16.85;69.65
54554;BME280;40450;55.848;-3.572;2022-09-13T12:17:43;99045.74;;;16.39;69.91
54554;BME280;40450;55.848;-3.572;2022-09-13T12:20:15;99043.39;;;16.03;72.27
54554;BME280;40450;55.848;-3.572;2022-09-13T12:22:41;99046.44;;;16.99;70.10
54554;BME280;40450;55.848;-3.572;2022-09-13T12:25:18;99044.18;;;17.80;68.17
54554;BME280;40450;55.848;-3.572;2022-09-13T12:27:47;99043.37;;;16.35;70.32
54554;BME280;40450;55.848;-3.572;2022-09-13T12:30:15;99039.86;;;16.70;68.66
54554;BME280;40450;55.848;-3.572;2022-09-13T12:32:42;99042.45;;;16.18;70.54
54554;BME280;40450;55.848;-3.572;2022-09-13T12:35:18;99048.69;;;16.67;68.59
54554;BME280;40450;55.848;-3.572;2022-09-13T12:37:54;99049.00;;;15.80;70.95
54554;BME280;40450;55.848;-3.572;2022-09-13T12:45:26;99054.61;;;16.34;71.59
54554;BME280;40450;55.848;-3.572;2022-09-13T12:47:53;99060.01;;;15.32;75.33
54554;BME280;40450;55.848;-3.572;2022-09-13T12:52:51;99042.45;;;18.10;65.61
54554;BME280;40450;55.848;-3.572;2022-09-13T12:57:50;99045.68;;;15.91;71.68
54554;BME280;40450;55.848;-3.572;2022-09-13T13:00:19;99048.41;;;14.67;75.80
54554;BME280;40450;55.848;-3.572;2022-09-13T13:02:55;99043.19;;;14.79;73.19
54554;BME280;40450;55.848;-3.572;2022-09-13T13:05:23;99038.89;;;16.19;70.41
54554;BME280;40450;55.848;-3.572;2022-09-13T13:07:51;99034.45;;;17.03;67.96
54554;BME280;40450;55.848;-3.572;2022-09-13T13:10:24;99025.96;;;17.41;65.39
54554;BME280;40450;55.848;-3.572;2022-09-13T13:12:47;99025.39;;;17.63;66.05
54554;BME280;40450;55.848;-3.572;2022-09-13T13:17:50;99027.43;;;18.12;65.06
54554;BME280;40450;55.848;-3.572;2022-09-13T13:22:50;99027.75;;;18.23;61.19
54554;BME280;40450;55.848;-3.572;2022-09-13T13:25:29;99033.12;;;18.16;61.68
54554;BME280;40450;55.848;-3.572;2022-09-13T13:27:49;99033.31;;;17.37;63.67